Time;durP1;ratioP1;P1;durP2;ratioP2;P2;SDS_P1;SDS_P2;PMS_P1;PMS_P2;Temp;Humidity;BMP_temperature;BMP_pressure;BME280_temperature;BME280_humidity;BME280_pressure;Samples;Min_cycle;Max_cycle;Signal;HPM_P1;HPM_P2
2023/04/01 00:00:17;;;;;;;11.43;7.83;;;8.60;99.90;;;;;;5033234;28;20405;-72
2023/04/01 00:02:43;;;;;;;11.00;8.77;;;8.60;99.90;;;;;;5034966;28;20694;-71
2023/04/01 00:05:10;;;;;;;11.27;8.77;;;8.50;99.90;;;;;;5054113;28;20382;-73
2023/04/01 00:07:37;;;;;;;12.97;8.90;;;8.40;99.90;;;;;;5052748;28;20167;-73
2023/04/01 00:10:07;;;;;;;9.00;7.43;;;8.40;99.90;;;;;;5052332;28;20413;-71
2023/04/01 00:12:34;;;;;;;9.27;7.10;;;8.30;99.90;;;;;;5053702;28;20586;-74
2023/04/01 00:14:59;;;;;;;12.37;6.83;;;8.30;99.90;;;;;;5053893;28;20405;-70
2023/04/01 00:17:25;;;;;;;8.80;6.90;;;8.20;99.90;;;;;;5039079;28;20547;-71
2023/04/01 00:19:51;;;;;;;9.40;7.53;;;8.20;99.90;;;;;;5032447;28;20907;-72
2023/04/01 00:22:17;;;;;;;12.13;7.73;;;8.10;99.90;;;;;;5032959;28;20439;-72
2023/04/01 00:24:43;;;;;;;7.73;6.60;;;8.10;99.90;;;;;;5032333;28;20450;-71
2023/04/01 00:27:09;;;;;;;8.60;6.60;;;8.00;99.90;;;;;;5033903;28;20163;-71
2023/04/01 00:29:35;;;;;;;8.50;6.30;;;8.00;99.90;;;;;;5033728;28;20640;-73
2023/04/01 00:32:00;;;;;;;9.73;6.80;;;8.00;99.90;;;;;;5034257;28;20196;-71
2023/04/01 00:34:26;;;;;;;6.50;5.43;;;8.00;99.90;;;;;;5051271;28;20420;-71
2023/04/01 00:36:52;;;;;;;6.07;5.37;;;8.00;99.90;;;;;;5052680;28;20186;-72
2023/04/01 00:39:21;;;;;;;12.40;5.90;;;8.00;99.90;;;;;;5053355;28;20478;-72
2023/04/01 00:41:47;;;;;;;5.70;5.10;;;7.90;99.90;;;;;;5052512;28;20855;-73
2023/04/01 00:44:24;;;;;;;5.40;4.90;;;7.90;99.90;;;;;;5043214;28;20523;-72
2023/04/01 00:46:52;;;;;;;5.13;4.63;;;7.90;99.90;;;;;;5033321;28;20409;-75
2023/04/01 00:49:20;;;;;;;4.67;4.27;;;7.80;99.90;;;;;;5033341;28;20407;-72
2023/04/01 00:51:50;;;;;;;5.10;4.70;;;7.80;99.90;;;;;;5031633;28;20417;-73
2023/04/01 00:54:17;;;;;;;5.90;4.70;;;7.80;99.90;;;;;;5033290;28;20410;-70
2023/04/01 00:56:51;;;;;;;6.57;4.30;;;7.70;99.90;;;;;;5033117;28;20405;-73
2023/04/01 00:59:22;;;;;;;5.83;4.00;;;7.70;99.90;;;;;;5042576;28;20436;-73
2023/04/01 01:01:48;;;;;;;6.33;5.17;;;7.70;99.90;;;;;;5051161;28;20506;-74
2023/04/01 01:04:30;;;;;;;6.07;5.47;;;7.60;99.90;;;;;;5052960;28;20934;-74
2023/04/01 01:07:17;;;;;;;5.63;5.10;;;7.50;99.90;;;;;;5051954;28;20167;-72
2023/04/01 01:09:59;;;;;;;7.43;5.47;;;7.50;99.90;;;;;;5052470;28;20402;-74
2023/04/01 01:12:57;;;;;;;5.73;5.33;;;7.50;99.90;;;;;;5050034;28;20452;-74
2023/04/01 01:15:36;;;;;;;6.23;5.63;;;7.40;99.90;;;;;;5052552;28;20508;-75
2023/04/01 01:18:34;;;;;;;5.87;5.27;;;7.40;99.90;;;;;;5051846;28;20409;-74
2023/04/01 01:21:37;;;;;;;9.60;6.93;;;7.40;99.90;;;;;;5040250;28;20436;-73
2023/04/01 01:24:21;;;;;;;6.03;5.37;;;7.40;99.90;;;;;;5032898;28;20420;-73
2023/04/01 01:27:11;;;;;;;5.13;4.63;;;7.40;99.90;;;;;;5032218;28;20430;-73
2023/04/01 01:30:00;;;;;;;8.03;5.40;;;7.40;99.90;;;;;;5052673;28;20790;-72
2023/04/01 01:32:52;;;;;;;6.17;5.00;;;7.30;99.90;;;;;;5052222;28;20418;-73
2023/04/01 01:35:27;;;;;;;5.23;4.73;;;7.30;99.90;;;;;;5051397;28;20405;-71
2023/04/01 01:38:22;;;;;;;5.50;5.00;;;7.20;99.90;;;;;;5052761;28;20409;-73
2023/04/01 01:40:53;;;;;;;5.33;4.90;;;7.10;99.90;;;;;;5050698;28;20425;-73
2023/04/01 01:43:23;;;;;;;7.40;5.40;;;7.10;99.90;;;;;;5051797;28;20473;-73
2023/04/01 01:45:55;;;;;;;5.53;5.03;;;7.10;99.90;;;;;;5056338;28;20580;-73
2023/04/01 01:48:23;;;;;;;13.80;6.03;;;7.10;99.90;;;;;;5056707;28;20484;-72
2023/04/01 01:50:49;;;;;;;4.60;4.20;;;7.00;99.90;;;;;;5054491;28;20532;-72
2023/04/01 01:53:15;;;;;;;8.70;4.33;;;7.00;99.90;;;;;;5056354;28;20444;-74
2023/04/01 01:55:44;;;;;;;5.30;4.80;;;6.90;99.90;;;;;;5056667;28;20401;-74
2023/04/01 01:58:13;;;;;;;4.27;3.93;;;6.90;99.90;;;;;;5056445;28;20228;-72
2023/04/01 02:00:40;;;;;;;6.23;4.73;;;6.90;99.90;;;;;;5055048;28;20397;-73
2023/04/01 02:03:06;;;;;;;3.77;3.57;;;7.00;99.90;;;;;;5047581;28;20462;-74
2023/04/01 02:05:32;;;;;;;3.90;3.70;;;6.90;99.90;;;;;;5036286;28;20413;-73
2023/04/01 02:08:09;;;;;;;4.37;4.00;;;6.90;99.90;;;;;;5036528;28;20409;-74
2023/04/01 02:10:39;;;;;;;4.00;3.70;;;6.80;99.90;;;;;;5035424;28;20956;-73
2023/04/01 02:13:26;;;;;;;5.03;3.37;;;6.80;99.90;;;;;;5036203;28;20407;-71
2023/04/01 02:15:56;;;;;;;4.43;3.00;;;6.70;99.90;;;;;;5036232;28;20398;-71
2023/04/01 02:18:22;;;;;;;4.33;2.90;;;6.70;99.90;;;;;;5035078;28;20517;-73
2023/04/01 02:20:50;;;;;;;3.50;3.30;;;6.60;99.90;;;;;;5034779;28;20422;-72
2023/04/01 02:23:16;;;;;;;4.43;3.20;;;6.60;99.90;;;;;;5034535;28;20460;-71
2023/04/01 02:25:43;;;;;;;2.93;2.73;;;6.60;99.90;;;;;;5034725;28;20414;-72
2023/04/01 02:28:10;;;;;;;3.30;2.50;;;6.60;99.90;;;;;;5034608;28;20428;-71
2023/04/01 02:30:39;;;;;;;3.00;2.80;;;6.60;99.90;;;;;;5035031;28;20405;-73
2023/04/01 02:33:06;;;;;;;3.50;3.20;;;6.50;99.90;;;;;;5035832;28;20776;-72
2023/04/01 02:35:35;;;;;;;3.10;2.90;;;6.50;99.90;;;;;;5034685;28;20528;-72
2023/04/01 02:38:01;;;;;;;2.77;2.60;;;6.50;99.90;;;;;;5035638;28;20815;-70
2023/04/01 02:40:26;;;;;;;3.57;2.30;;;6.40;99.90;;;;;;5033119;28;20510;-74
2023/04/01 02:42:52;;;;;;;2.23;2.13;;;6.40;99.90;;;;;;5035541;28;20512;-69
2023/04/01 02:45:18;;;;;;;2.37;2.27;;;6.30;99.90;;;;;;5043485;28;20674;-73
2023/04/01 02:47:44;;;;;;;2.63;2.50;;;6.30;99.90;;;;;;5055494;28;20163;-70
2023/04/01 02:50:10;;;;;;;2.47;2.37;;;6.30;99.90;;;;;;5054500;28;20472;-72
2023/04/01 02:52:36;;;;;;;2.50;2.30;;;6.30;99.90;;;;;;5055300;28;20594;-71
2023/04/01 02:55:03;;;;;;;2.27;2.17;;;6.30;99.90;;;;;;5055360;28;20405;-69
2023/04/01 02:57:30;;;;;;;2.07;1.97;;;6.20;99.90;;;;;;5052831;28;20471;-69
2023/04/01 02:59:56;;;;;;;2.73;1.90;;;6.20;99.90;;;;;;5044927;28;20441;-70
2023/04/01 03:02:21;;;;;;;3.20;2.03;;;6.10;99.90;;;;;;5034761;28;20253;-71
2023/04/01 03:04:47;;;;;;;1.77;1.67;;;6.10;99.90;;;;;;5034002;28;20205;-71
2023/04/01 03:07:13;;;;;;;3.00;1.90;;;6.10;99.90;;;;;;5033965;28;20176;-73
2023/04/01 03:09:39;;;;;;;2.00;1.90;;;6.10;99.90;;;;;;5035250;28;20645;-72
2023/04/01 03:12:06;;;;;;;2.67;1.60;;;6.10;99.90;;;;;;5034214;28;20197;-70
2023/04/01 03:14:31;;;;;;;1.93;1.73;;;6.00;99.90;;;;;;5034675;28;20995;-70
2023/04/01 03:16:57;;;;;;;1.97;1.87;;;6.00;99.90;;;;;;5034483;28;20492;-73
2023/04/01 03:19:23;;;;;;;2.40;2.10;;;6.00;99.90;;;;;;5033725;28;20218;-68
2023/04/01 03:21:49;;;;;;;2.00;1.90;;;6.00;99.90;;;;;;5032677;28;20198;-71
2023/04/01 03:24:14;;;;;;;1.90;1.70;;;6.00;99.90;;;;;;5035001;28;20198;-72
2023/04/01 03:26:40;;;;;;;2.43;2.23;;;6.00;99.90;;;;;;5034856;28;20177;-71
2023/04/01 03:29:06;;;;;;;3.20;2.00;;;5.90;99.90;;;;;;5048483;28;20184;-71
2023/04/01 03:31:31;;;;;;;2.80;2.60;;;5.90;99.90;;;;;;5033230;28;20665;-69
2023/04/01 03:33:57;;;;;;;1.87;1.77;;;5.90;99.90;;;;;;5032985;28;20181;-73
2023/04/01 03:36:23;;;;;;;2.23;2.13;;;6.00;99.90;;;;;;5033492;28;20174;-73
2023/04/01 03:38:49;;;;;;;1.90;1.80;;;5.90;99.90;;;;;;5033385;28;20539;-69
2023/04/01 03:41:16;;;;;;;4.37;2.60;;;5.80;99.90;;;;;;5035811;28;20439;-69
2023/04/01 03:43:43;;;;;;;2.60;1.77;;;5.80;99.90;;;;;;5054472;28;20191;-69
2023/04/01 03:46:08;;;;;;;2.07;1.97;;;5.90;99.90;;;;;;5054262;28;20456;-71
2023/04/01 03:48:34;;;;;;;2.00;1.90;;;5.80;99.90;;;;;;5054457;28;20409;-73
2023/04/01 03:51:00;;;;;;;2.00;1.90;;;5.80;99.90;;;;;;5053431;28;20181;-73
2023/04/01 03:53:26;;;;;;;3.10;2.10;;;5.80;99.90;;;;;;5053664;28;20515;-69
2023/04/01 03:55:53;;;;;;;2.43;2.33;;;5.80;99.90;;;;;;5053169;28;20194;-72
2023/04/01 03:58:19;;;;;;;5.83;2.47;;;5.80;99.90;;;;;;5054161;28;20424;-71
2023/04/01 04:00:45;;;;;;;2.27;2.17;;;5.80;99.90;;;;;;5053326;28;20398;-69
2023/04/01 04:03:10;;;;;;;1.60;1.50;;;5.70;99.90;;;;;;5054062;28;20449;-69
2023/04/01 04:05:36;;;;;;;1.83;1.73;;;5.70;99.90;;;;;;5054031;28;20171;-71
2023/04/01 04:08:03;;;;;;;2.40;2.30;;;5.70;99.90;;;;;;5052270;28;20493;-72
2023/04/01 04:10:29;;;;;;;2.43;2.33;;;5.70;99.90;;;;;;5050742;28;20434;-69
2023/04/01 04:12:55;;;;;;;2.33;2.23;;;5.60;99.90;;;;;;5053851;28;20426;-71
2023/04/01 04:15:21;;;;;;;2.43;2.33;;;5.60;99.90;;;;;;5053904;28;20551;-71
2023/04/01 04:17:47;;;;;;;2.60;2.40;;;5.60;99.90;;;;;;5052965;28;20417;-69
2023/04/01 04:20:14;;;;;;;2.30;2.20;;;5.50;99.90;;;;;;5052772;28;20410;-71
2023/04/01 04:22:39;;;;;;;3.30;3.00;;;5.50;99.90;;;;;;5052244;28;20467;-70
2023/04/01 04:25:06;;;;;;;3.00;2.80;;;5.50;99.90;;;;;;5033333;28;20543;-72
2023/04/01 04:27:31;;;;;;;2.80;2.70;;;5.50;99.90;;;;;;5032182;28;20187;-71
2023/04/01 04:29:57;;;;;;;3.53;2.70;;;5.50;99.90;;;;;;5032370;28;20415;-69
2023/04/01 04:32:23;;;;;;;3.47;3.10;;;5.50;99.90;;;;;;5031664;28;20245;-71
2023/04/01 04:34:48;;;;;;;3.00;2.83;;;5.50;99.90;;;;;;5033513;28;20176;-70
2023/04/01 04:37:14;;;;;;;2.90;2.70;;;5.50;99.90;;;;;;5033592;28;20164;-71
2023/04/01 04:39:40;;;;;;;3.53;3.33;;;5.50;99.90;;;;;;5033070;28;20622;-69
2023/04/01 04:42:06;;;;;;;3.40;3.20;;;5.50;99.90;;;;;;5032215;28;20596;-70
2023/04/01 04:44:31;;;;;;;2.10;2.00;;;5.50;99.90;;;;;;5032814;28;20204;-71
2023/04/01 04:46:57;;;;;;;3.20;2.90;;;5.50;99.90;;;;;;5033386;28;20172;-71
2023/04/01 04:49:23;;;;;;;2.70;2.40;;;5.40;99.90;;;;;;5032082;28;20610;-69
2023/04/01 04:51:48;;;;;;;3.43;3.23;;;5.40;99.90;;;;;;5031661;28;20207;-70
2023/04/01 04:54:14;;;;;;;2.93;2.73;;;5.40;99.90;;;;;;5032796;28;20268;-72
2023/04/01 04:56:40;;;;;;;5.13;3.30;;;5.40;99.90;;;;;;5033236;28;20198;-69
2023/04/01 04:59:06;;;;;;;3.90;3.03;;;5.40;99.90;;;;;;5032030;28;20453;-70
2023/04/01 05:01:33;;;;;;;2.80;2.60;;;5.40;99.90;;;;;;5036796;28;20671;-70
2023/04/01 05:03:59;;;;;;;3.30;2.83;;;5.40;99.90;;;;;;5040526;28;20481;-69
2023/04/01 05:06:25;;;;;;;3.10;2.90;;;5.40;99.90;;;;;;5044681;28;20434;-71
2023/04/01 05:08:51;;;;;;;2.10;2.00;;;5.40;99.90;;;;;;5039231;28;20552;-70
2023/04/01 05:11:19;;;;;;;2.70;2.60;;;5.40;99.90;;;;;;5042622;28;20441;-71
2023/04/01 05:13:46;;;;;;;3.20;2.53;;;5.30;99.90;;;;;;5033233;28;20404;-74
2023/04/01 05:16:17;;;;;;;3.03;2.83;;;5.30;99.90;;;;;;5032235;28;20481;-71
2023/04/01 05:18:43;;;;;;;3.03;2.73;;;5.30;99.90;;;;;;5031604;28;20440;-71
2023/04/01 05:21:11;;;;;;;2.93;2.67;;;5.30;99.90;;;;;;5031787;28;20529;-71
2023/04/01 05:23:37;;;;;;;3.00;2.20;;;5.40;99.90;;;;;;5032907;28;20454;-72
2023/04/01 05:26:08;;;;;;;3.00;2.80;;;5.40;99.90;;;;;;5032943;28;20751;-69
2023/04/01 05:28:33;;;;;;;3.17;3.00;;;5.30;99.90;;;;;;5032943;28;20533;-69
2023/04/01 05:31:00;;;;;;;3.40;3.10;;;5.40;99.90;;;;;;5030249;28;20904;-70
2023/04/01 05:33:27;;;;;;;3.10;2.90;;;5.40;99.90;;;;;;5032801;28;20211;-73
2023/04/01 05:35:53;;;;;;;2.67;2.57;;;5.30;99.90;;;;;;5032864;28;20408;-71
2023/04/01 05:38:19;;;;;;;3.60;3.30;;;5.30;99.90;;;;;;5031804;28;20448;-72
2023/04/01 05:40:45;;;;;;;3.40;3.20;;;5.40;99.90;;;;;;5030627;28;20419;-75
2023/04/01 05:43:11;;;;;;;2.17;2.07;;;5.40;99.90;;;;;;5032602;28;20236;-69
2023/04/01 05:45:37;;;;;;;3.90;2.47;;;5.40;99.90;;;;;;5032847;28;20408;-70
2023/04/01 05:48:03;;;;;;;3.33;2.60;;;5.30;99.90;;;;;;5032744;28;20240;-71
2023/04/01 05:50:28;;;;;;;2.77;2.57;;;5.30;99.90;;;;;;5032960;28;20482;-68
2023/04/01 05:52:54;;;;;;;3.77;2.90;;;5.30;99.90;;;;;;5052463;28;20665;-71
2023/04/01 05:55:20;;;;;;;3.50;3.30;;;5.30;99.90;;;;;;5052300;28;20177;-71
2023/04/01 05:57:48;;;;;;;3.50;3.30;;;5.30;99.90;;;;;;5051963;28;20213;-73
2023/04/01 06:00:14;;;;;;;2.70;2.50;;;5.30;99.90;;;;;;5051488;28;20411;-71
2023/04/01 06:02:42;;;;;;;2.70;2.50;;;5.30;99.90;;;;;;5052505;28;20417;-71
2023/04/01 06:05:25;;;;;;;2.80;2.70;;;5.40;99.90;;;;;;5048032;28;20850;-71
2023/04/01 06:07:59;;;;;;;5.77;3.30;;;5.40;99.90;;;;;;5032671;28;20405;-71
2023/04/01 06:10:37;;;;;;;2.90;2.70;;;5.30;99.90;;;;;;5031730;28;20573;-68
2023/04/01 06:13:09;;;;;;;1.80;1.70;;;5.40;99.90;;;;;;5032287;28;20914;-67
2023/04/01 06:16:00;;;;;;;2.90;2.60;;;5.30;99.90;;;;;;5032232;28;20400;-69
2023/04/01 06:18:31;;;;;;;2.57;2.40;;;5.40;99.90;;;;;;5030951;28;20461;-68
2023/04/01 06:21:27;;;;;;;5.33;2.57;;;5.40;99.90;;;;;;5031536;28;20409;-69
2023/04/01 06:24:02;;;;;;;2.43;2.03;;;5.40;99.90;;;;;;5040007;28;20485;-69
2023/04/01 06:26:37;;;;;;;2.70;2.60;;;5.40;99.90;;;;;;5032439;28;20498;-66
2023/04/01 06:29:24;;;;;;;2.70;2.50;;;5.40;99.90;;;;;;5032424;28;20403;-69
2023/04/01 06:32:20;;;;;;;3.20;2.13;;;5.30;99.90;;;;;;5032899;28;20418;-68
2023/04/01 06:35:07;;;;;;;2.67;2.43;;;5.30;99.90;;;;;;5035044;28;20953;-67
2023/04/01 06:37:40;;;;;;;8.00;6.33;;;5.30;99.90;;;;;;5035596;28;20410;-66
2023/04/01 06:40:17;;;;;;;2.53;2.43;;;5.30;99.90;;;;;;5034867;28;20406;-71
2023/04/01 06:43:08;;;;;;;3.43;3.17;;;5.30;99.90;;;;;;5034625;28;20783;-66
2023/04/01 06:45:48;;;;;;;4.90;2.70;;;5.30;99.90;;;;;;5034274;28;20502;-66
2023/04/01 06:48:26;;;;;;;3.80;2.67;;;5.30;99.90;;;;;;5035946;28;20460;-68
2023/04/01 06:51:23;;;;;;;2.97;2.67;;;5.30;99.90;;;;;;5036399;28;20452;-69
2023/04/01 06:53:57;;;;;;;2.93;2.70;;;5.40;99.90;;;;;;5055431;28;20421;-67
2023/04/01 06:56:26;;;;;;;3.67;2.43;;;5.30;99.90;;;;;;5055456;28;20800;-67
2023/04/01 06:59:02;;;;;;;3.23;2.77;;;5.30;99.90;;;;;;5055351;28;20431;-68
2023/04/01 07:01:39;;;;;;;2.70;2.50;;;5.30;99.90;;;;;;5054155;28;20405;-68
2023/04/01 07:04:11;;;;;;;3.10;2.37;;;5.30;99.90;;;;;;5038841;28;20552;-70
2023/04/01 07:06:44;;;;;;;3.43;3.23;;;5.30;99.90;;;;;;5035296;28;20403;-67
2023/04/01 07:09:16;;;;;;;2.67;2.50;;;5.30;99.90;;;;;;5033422;28;20411;-69
2023/04/01 07:11:42;;;;;;;2.90;2.70;;;5.30;99.90;;;;;;5034186;28;20498;-67
2023/04/01 07:14:14;;;;;;;2.83;2.63;;;5.40;99.90;;;;;;5035106;28;20419;-69
2023/04/01 07:16:56;;;;;;;3.00;2.80;;;5.30;99.90;;;;;;5033488;28;20770;-68
2023/04/01 07:19:36;;;;;;;3.00;2.80;;;5.30;99.90;;;;;;5045929;28;20429;-67
2023/04/01 07:22:12;;;;;;;4.13;2.30;;;5.30;99.90;;;;;;5032685;28;20448;-69
2023/04/01 07:24:42;;;;;;;3.10;2.80;;;5.40;99.90;;;;;;5034801;28;20457;-69
2023/04/01 07:27:13;;;;;;;5.43;2.77;;;5.30;99.90;;;;;;5033678;28;20418;-67
2023/04/01 07:29:40;;;;;;;3.27;3.07;;;5.30;99.90;;;;;;5034451;28;20418;-70
2023/04/01 07:32:24;;;;;;;3.63;3.40;;;5.40;99.90;;;;;;5033731;28;20779;-69
2023/04/01 07:35:05;;;;;;;4.40;2.90;;;5.30;99.90;;;;;;5047051;28;20526;-66
2023/04/01 07:37:49;;;;;;;3.93;3.63;;;5.30;99.90;;;;;;5037613;28;20438;-70
2023/04/01 07:40:18;;;;;;;2.73;2.53;;;5.30;99.90;;;;;;5033714;28;20749;-66
2023/04/01 07:42:54;;;;;;;2.40;2.30;;;5.30;99.90;;;;;;5033043;28;20430;-69
2023/04/01 07:45:31;;;;;;;2.70;2.50;;;5.30;99.90;;;;;;5034609;28;20967;-69
2023/04/01 07:48:16;;;;;;;3.00;2.80;;;5.30;99.90;;;;;;5033851;28;20486;-70
2023/04/01 07:51:07;;;;;;;3.33;2.73;;;5.30;99.90;;;;;;5032146;28;20803;-70
2023/04/01 07:53:36;;;;;;;3.37;2.80;;;5.40;99.90;;;;;;5034283;28;20427;-69
2023/04/01 07:56:21;;;;;;;2.97;2.73;;;5.30;99.90;;;;;;5034222;28;20411;-69
2023/04/01 07:59:13;;;;;;;13.90;2.80;;;5.40;99.90;;;;;;5034334;28;21008;-69
2023/04/01 08:01:42;;;;;;;3.40;3.20;;;5.40;99.90;;;;;;5033328;28;20923;-68
2023/04/01 08:04:19;;;;;;;4.63;2.70;;;5.40;99.90;;;;;;5047628;28;20814;-70
2023/04/01 08:06:56;;;;;;;5.20;2.70;;;5.40;99.90;;;;;;5052752;28;20413;-69
2023/04/01 08:09:55;;;;;;;2.63;2.20;;;5.30;99.90;;;;;;5053387;28;20413;-69
2023/04/01 08:12:27;;;;;;;2.80;2.60;;;5.30;99.90;;;;;;5053228;28;20415;-70
2023/04/01 08:15:00;;;;;;;3.10;2.13;;;5.30;99.90;;;;;;5052622;28;20414;-69
2023/04/01 08:17:54;;;;;;;3.27;3.07;;;5.30;99.90;;;;;;5052747;28;21105;-69
2023/04/01 08:20:34;;;;;;;3.00;2.70;;;5.20;99.90;;;;;;5051576;28;20779;-68
2023/04/01 08:23:26;;;;;;;9.40;2.97;;;5.20;99.90;;;;;;5052405;28;20449;-68
2023/04/01 08:26:00;;;;;;;5.00;2.63;;;5.30;99.90;;;;;;5051781;28;20474;-69
2023/04/01 08:28:46;;;;;;;3.57;3.33;;;5.30;99.90;;;;;;5052585;28;20416;-73
2023/04/01 08:31:32;;;;;;;3.80;3.50;;;5.30;99.90;;;;;;5047711;28;20431;-71
2023/04/01 08:34:01;;;;;;;3.60;3.40;;;5.30;99.90;;;;;;5033631;28;20406;-69
2023/04/01 08:36:40;;;;;;;4.40;3.50;;;5.40;99.90;;;;;;5033535;28;20465;-68
2023/04/01 08:39:36;;;;;;;3.63;3.37;;;5.40;99.90;;;;;;5032329;28;20418;-68
2023/04/01 08:42:14;;;;;;;4.20;3.40;;;5.30;99.90;;;;;;5031257;28;20447;-70
2023/04/01 08:44:43;;;;;;;4.83;3.40;;;5.30;99.90;;;;;;5032405;28;20949;-68
2023/04/01 08:47:36;;;;;;;7.70;4.03;;;5.20;99.90;;;;;;5032982;28;20811;-69
2023/04/01 08:50:24;;;;;;;7.70;2.90;;;5.20;99.90;;;;;;5032145;28;20423;-70
2023/04/01 08:53:03;;;;;;;3.93;3.63;;;5.20;99.90;;;;;;5032013;28;20439;-69
2023/04/01 08:56:01;;;;;;;4.20;3.63;;;5.20;99.90;;;;;;5033391;28;20414;-69
2023/04/01 08:59:01;;;;;;;5.57;3.20;;;5.20;99.90;;;;;;5035653;28;20431;-71
2023/04/01 09:01:45;;;;;;;4.37;3.90;;;5.10;99.90;;;;;;5035852;28;20993;-70
2023/04/01 09:04:37;;;;;;;6.30;4.77;;;5.10;99.90;;;;;;5032521;28;20811;-68
2023/04/01 09:07:12;;;;;;;5.83;3.83;;;5.00;99.90;;;;;;5033285;28;20407;-71
2023/04/01 09:10:11;;;;;;;7.70;4.47;;;5.10;99.90;;;;;;5032873;28;20766;-74
2023/04/01 09:13:15;;;;;;;9.60;4.80;;;5.10;99.90;;;;;;5046282;28;20446;-68
2023/04/01 09:16:15;;;;;;;6.80;5.20;;;5.10;99.90;;;;;;5033106;28;20436;-66
2023/04/01 09:19:10;;;;;;;4.80;3.87;;;5.10;99.90;;;;;;5040566;28;20482;-73
2023/04/01 09:22:06;;;;;;;5.90;5.00;;;5.10;99.90;;;;;;5031835;28;20438;-74
2023/04/01 09:24:55;;;;;;;7.43;5.00;;;5.00;99.90;;;;;;5032895;28;20450;-73
2023/04/01 09:27:34;;;;;;;10.10;7.60;;;5.00;99.90;;;;;;5031724;28;20454;-66
2023/04/01 09:30:24;;;;;;;7.20;5.80;;;5.00;99.90;;;;;;5031434;28;20414;-67
2023/04/01 09:33:31;;;;;;;7.10;5.07;;;4.90;99.90;;;;;;5043195;28;20437;-73
2023/04/01 09:36:15;;;;;;;8.87;6.70;;;4.90;99.90;;;;;;5051490;28;20410;-74
2023/04/01 09:38:57;;;;;;;11.73;6.50;;;4.90;99.90;;;;;;5051267;28;20429;-67
2023/04/01 09:41:41;;;;;;;9.00;6.40;;;5.00;99.90;;;;;;5051723;28;20382;-68
2023/04/01 09:44:35;;;;;;;5.33;4.93;;;5.00;99.90;;;;;;5052625;28;20497;-68
2023/04/01 09:47:19;;;;;;;6.90;5.43;;;4.90;99.90;;;;;;5033746;28;20858;-76
2023/04/01 09:50:06;;;;;;;6.17;5.23;;;4.80;99.90;;;;;;5031494;28;20449;-77
2023/04/01 09:52:56;;;;;;;8.83;6.07;;;4.80;99.90;;;;;;5031474;28;20461;-68
2023/04/01 09:55:40;;;;;;;13.50;6.77;;;4.80;99.90;;;;;;5039730;28;20422;-76
2023/04/01 09:58:12;;;;;;;6.00;4.37;;;4.70;99.90;;;;;;5050721;28;20497;-67
2023/04/01 10:01:25;;;;;;;5.80;5.30;;;4.60;99.90;;;;;;5050639;28;20495;-76
2023/04/01 10:04:09;;;;;;;8.50;6.17;;;4.70;99.90;;;;;;5046705;28;20503;-76
2023/04/01 10:07:16;;;;;;;10.73;7.00;;;4.70;99.90;;;;;;5035544;28;20918;-78
2023/04/01 10:10:15;;;;;;;7.23;5.00;;;4.70;99.90;;;;;;5050649;28;20429;-69
2023/04/01 10:13:02;;;;;;;9.80;6.23;;;4.70;99.90;;;;;;5053346;28;20452;-73
2023/04/01 10:15:33;;;;;;;11.87;7.23;;;4.70;99.90;;;;;;5034788;28;20413;-77
2023/04/01 10:18:18;;;;;;;5.13;4.60;;;4.70;99.90;;;;;;5036163;28;20994;-76
2023/04/01 10:21:17;;;;;;;6.77;6.07;;;4.80;99.90;;;;;;5035211;28;20394;-69
2023/04/01 10:24:29;;;;;;;9.13;6.63;;;4.80;99.90;;;;;;5049780;28;20536;-69
2023/04/01 10:27:22;;;;;;;7.57;5.53;;;4.70;99.90;;;;;;5054456;28;20825;-72
2023/04/01 10:29:53;;;;;;;10.67;7.07;;;4.50;99.90;;;;;;5042042;28;20468;-76
2023/04/01 10:32:22;;;;;;;12.47;7.60;;;4.50;99.90;;;;;;5037940;28;20966;-76
2023/04/01 10:35:05;;;;;;;19.07;6.33;;;4.50;99.90;;;;;;5035861;28;20394;-77
2023/04/01 10:37:54;;;;;;;7.77;6.10;;;4.50;99.90;;;;;;5038307;28;20434;-75
2023/04/01 10:40:39;;;;;;;5.63;3.00;;;4.50;99.90;;;;;;5037774;28;20425;-77
2023/04/01 10:43:27;;;;;;;6.53;5.93;;;4.50;99.90;;;;;;5034325;28;20863;-68
2023/04/01 10:46:08;;;;;;;13.00;6.13;;;4.40;99.90;;;;;;5035727;28;20481;-68
2023/04/01 10:48:55;;;;;;;4.47;4.17;;;4.30;99.90;;;;;;5035637;28;20433;-69
2023/04/01 10:51:57;;;;;;;6.20;5.10;;;4.30;99.90;;;;;;5032859;28;20433;-77
2023/04/01 10:54:31;;;;;;;20.00;5.97;;;4.30;99.90;;;;;;5034031;28;20434;-77
2023/04/01 10:57:42;;;;;;;8.70;5.67;;;4.30;99.90;;;;;;5035486;28;20430;-77
2023/04/01 11:00:32;;;;;;;6.53;5.43;;;4.30;99.90;;;;;;5042107;28;20508;-75
2023/04/01 11:03:16;;;;;;;8.20;6.57;;;4.30;99.90;;;;;;5035380;28;20445;-76
2023/04/01 11:06:09;;;;;;;15.07;6.50;;;4.30;99.90;;;;;;5034080;28;20423;-76
2023/04/01 11:09:12;;;;;;;7.90;6.13;;;4.20;99.90;;;;;;5034674;28;20425;-69
2023/04/01 11:12:05;;;;;;;14.47;7.40;;;4.20;99.90;;;;;;5032363;28;20468;-69
2023/04/01 11:14:48;;;;;;;10.93;7.67;;;4.20;99.90;;;;;;5035183;28;20393;-71
2023/04/01 11:17:35;;;;;;;11.40;7.50;;;4.30;99.90;;;;;;5033278;28;20406;-72
2023/04/01 11:20:35;;;;;;;4.50;3.73;;;4.40;99.90;;;;;;5034763;28;20410;-77
2023/04/01 11:23:41;;;;;;;8.10;5.20;;;4.50;99.90;;;;;;5034397;28;20446;-70
2023/04/01 11:26:26;;;;;;;5.80;5.37;;;4.40;99.90;;;;;;5034901;28;20842;-77
2023/04/01 11:29:18;;;;;;;12.57;7.87;;;4.30;99.90;;;;;;5039460;28;20425;-76
2023/04/01 11:32:02;;;;;;;12.90;6.00;;;4.30;99.90;;;;;;5053774;28;20441;-69
2023/04/01 11:34:28;;;;;;;13.33;7.23;;;4.30;99.90;;;;;;5054779;28;20440;-69
2023/04/01 11:37:05;;;;;;;6.60;5.90;;;4.40;99.90;;;;;;5054673;28;20886;-76
2023/04/01 11:39:41;;;;;;;6.63;5.60;;;4.40;99.90;;;;;;5038215;28;20525;-70
2023/04/01 11:42:25;;;;;;;9.57;5.90;;;4.40;99.90;;;;;;5033639;28;20480;-76
2023/04/01 11:44:56;;;;;;;9.77;6.50;;;4.40;99.90;;;;;;5033273;28;20472;-69
2023/04/01 11:47:45;;;;;;;8.33;6.10;;;4.40;99.90;;;;;;5034060;28;20921;-70
2023/04/01 11:50:34;;;;;;;5.27;4.80;;;4.50;99.90;;;;;;5033435;28;20413;-75
2023/04/01 11:53:29;;;;;;;8.03;6.33;;;4.50;99.90;;;;;;5033425;28;20473;-76
2023/04/01 11:56:13;;;;;;;6.80;6.10;;;4.50;99.90;;;;;;5044068;28;20429;-68
2023/04/01 11:59:23;;;;;;;6.17;5.57;;;4.50;99.90;;;;;;5037886;28;20427;-68
2023/04/01 12:02:16;;;;;;;10.47;5.70;;;4.50;99.90;;;;;;5044013;28;20450;-70
2023/04/01 12:04:56;;;;;;;10.17;5.80;;;4.50;99.90;;;;;;5039337;28;20475;-76
2023/04/01 12:07:27;;;;;;;8.60;5.40;;;4.50;99.90;;;;;;5039902;28;20496;-76
2023/04/01 12:10:16;;;;;;;5.67;4.63;;;4.50;99.90;;;;;;5047317;28;20968;-75
2023/04/01 12:12:48;;;;;;;8.27;6.10;;;4.60;99.90;;;;;;5051631;28;20512;-75
2023/04/01 12:15:29;;;;;;;5.93;5.40;;;4.70;99.90;;;;;;5045430;28;20428;-74
2023/04/01 12:18:24;;;;;;;6.20;5.20;;;4.70;99.90;;;;;;5037642;28;20853;-74
2023/04/01 12:20:54;;;;;;;8.20;4.70;;;4.80;99.90;;;;;;5031755;28;20457;-68
2023/04/01 12:23:38;;;;;;;7.30;5.60;;;4.70;99.90;;;;;;5033477;28;20430;-71
2023/04/01 12:26:13;;;;;;;6.57;4.00;;;4.70;99.90;;;;;;5047983;28;20473;-68
2023/04/01 12:28:57;;;;;;;5.60;4.83;;;4.70;99.90;;;;;;5053514;28;20777;-79
2023/04/01 12:31:44;;;;;;;9.67;5.60;;;4.60;99.90;;;;;;5050172;28;20394;-79
2023/04/01 12:34:21;;;;;;;10.03;5.60;;;4.70;99.90;;;;;;5033535;28;20410;-68
2023/04/01 12:36:53;;;;;;;8.70;5.10;;;4.70;99.90;;;;;;5049754;28;20579;-80
2023/04/01 12:39:33;;;;;;;14.07;5.80;;;4.70;99.90;;;;;;5053502;28;20515;-68
2023/04/01 12:42:14;;;;;;;7.57;3.90;;;4.70;99.90;;;;;;5052016;28;20460;-77
2023/04/01 12:44:52;;;;;;;11.27;5.80;;;4.70;99.90;;;;;;5053265;28;20836;-69
2023/04/01 12:47:43;;;;;;;10.97;5.60;;;4.70;99.90;;;;;;5047780;28;20514;-68
2023/04/01 12:50:21;;;;;;;4.40;4.10;;;4.50;99.90;;;;;;5052312;28;20394;-78
2023/04/01 12:52:56;;;;;;;5.13;4.63;;;4.50;99.90;;;;;;5050924;28;20458;-67
2023/04/01 12:55:41;;;;;;;6.20;5.80;;;4.50;99.90;;;;;;5037695;28;20859;-69
2023/04/01 12:59:02;;;;;;;10.83;4.23;;;4.60;99.90;;;;;;5052177;28;20429;-75
2023/04/01 13:01:41;;;;;;;5.07;4.63;;;4.60;99.90;;;;;;5049307;28;20415;-68
2023/04/01 13:04:16;;;;;;;2.97;2.77;;;4.60;99.90;;;;;;5049159;28;20468;-77
2023/04/01 13:07:29;;;;;;;7.60;5.60;;;4.50;99.90;;;;;;5040731;28;20421;-77
2023/04/01 13:10:43;;;;;;;6.20;4.87;;;4.50;99.90;;;;;;5051860;28;20561;-69
2023/04/01 13:13:42;;;;;;;8.13;4.00;;;4.60;99.90;;;;;;5031569;28;20527;-77
2023/04/01 13:16:29;;;;;;;7.83;5.17;;;4.60;99.90;;;;;;5033103;28;20399;-68
2023/04/01 13:19:20;;;;;;;7.60;4.77;;;4.70;99.90;;;;;;5031947;28;20430;-76
2023/04/01 13:22:17;;;;;;;5.97;4.13;;;4.70;99.90;;;;;;5045930;28;20445;-76
2023/04/01 13:24:51;;;;;;;5.33;3.87;;;4.60;99.90;;;;;;5050142;28;20560;-73
2023/04/01 13:27:50;;;;;;;8.47;4.40;;;4.60;99.90;;;;;;5044469;28;20427;-75
2023/04/01 13:30:43;;;;;;;9.70;5.43;;;4.60;99.90;;;;;;5036592;28;20441;-76
2023/04/01 13:33:29;;;;;;;12.10;5.17;;;4.60;99.90;;;;;;5032795;28;20795;-75
2023/04/01 13:36:16;;;;;;;8.63;4.27;;;4.60;97.50;;;;;;5032979;28;20485;-69
2023/04/01 13:39:13;;;;;;;5.80;4.90;;;4.60;90.20;;;;;;5032159;28;20428;-75
2023/04/01 13:42:01;;;;;;;8.93;6.03;;;4.60;77.30;;;;;;5035238;28;20419;-75
2023/04/01 13:44:42;;;;;;;5.57;5.07;;;4.70;77.20;;;;;;5035920;28;20504;-76
2023/04/01 13:47:29;;;;;;;4.73;4.33;;;4.70;77.10;;;;;;5035528;28;20417;-69